Time;durP1;ratioP1;P1;durP2;ratioP2;P2;SDS_P1;SDS_P2;PMS_P1;PMS_P2;Temp;Humidity;BMP_temperature;BMP_pressure;BME280_temperature;BME280_humidity;BME280_pressure;Samples;Min_cycle;Max_cycle;Signal;HPM_P1;HPM_P2
2022/02/16 00:00:18;;;;;;;30.88;18.13;;;;;;;7.76;90.06;100414.53;5059347;28;20048;-77
2022/02/16 00:02:46;;;;;;;34.22;21.83;;;;;;;7.76;90.31;100407.03;5060010;28;20029;-77
2022/02/16 00:05:16;;;;;;;43.90;22.15;;;;;;;7.75;90.65;100404.63;5059425;28;20036;-77
2022/02/16 00:07:43;;;;;;;34.58;20.08;;;;;;;7.81;90.28;100409.59;5060392;28;20106;-77
2022/02/16 00:10:13;;;;;;;41.92;17.60;;;;;;;7.85;89.82;100405.00;5059265;28;20417;-77
2022/02/16 00:12:39;;;;;;;44.38;18.20;;;;;;;7.75;89.79;100396.31;5058073;28;20444;-77
2022/02/16 00:15:07;;;;;;;29.17;16.13;;;;;;;7.80;89.88;100396.91;5059038;28;20037;-77
2022/02/16 00:17:36;;;;;;;21.45;13.80;;;;;;;7.82;90.15;100402.09;5058639;28;20376;-77
2022/02/16 00:20:06;;;;;;;26.70;12.38;;;;;;;7.82;90.10;100402.09;5054714;28;20029;-78
2022/02/16 00:22:35;;;;;;;29.15;14.27;;;;;;;7.94;89.63;100418.00;5053663;28;20049;-77
2022/02/16 00:25:01;;;;;;;21.55;12.20;;;;;;;7.93;89.60;100419.13;5054586;28;20037;-78
2022/02/16 00:27:26;;;;;;;34.00;12.85;;;;;;;7.99;90.10;100423.31;5055723;28;20032;-78
2022/02/16 00:29:57;;;;;;;19.17;10.38;;;;;;;8.23;89.43;100436.47;5054685;28;20029;-77
2022/02/16 00:32:25;;;;;;;21.48;9.90;;;;;;;8.18;89.48;100434.72;5053924;28;20033;-78
2022/02/16 00:34:54;;;;;;;15.82;8.90;;;;;;;8.25;90.45;100437.72;5053984;28;20025;-77
2022/02/16 00:37:19;;;;;;;20.52;6.78;;;;;;;8.27;91.21;100427.13;5053663;28;20025;-77
2022/02/16 00:39:48;;;;;;;20.50;7.93;;;;;;;8.20;91.67;100418.53;5054125;28;20025;-77
2022/02/16 00:42:13;;;;;;;12.90;6.63;;;;;;;8.16;92.14;100414.84;5053569;28;20076;-78
2022/02/16 00:44:39;;;;;;;12.73;6.13;;;;;;;8.11;92.56;100406.75;5053790;28;20052;-78
2022/02/16 00:47:06;;;;;;;9.85;5.18;;;;;;;8.07;91.17;100406.59;5055537;28;20124;-78
2022/02/16 00:49:32;;;;;;;9.02;4.32;;;;;;;8.00;90.93;100408.31;5054288;28;20075;-78
2022/02/16 00:52:00;;;;;;;10.30;3.90;;;;;;;7.93;90.73;100410.81;5054823;28;20028;-79
2022/02/16 00:54:29;;;;;;;13.15;4.78;;;;;;;7.85;90.14;100402.25;5055198;28;20071;-78
2022/02/16 00:57:01;;;;;;;12.85;5.25;;;;;;;7.73;89.71;100410.50;5053742;28;20094;-78
2022/02/16 00:59:32;;;;;;;7.82;3.97;;;;;;;7.74;89.19;100403.81;5055747;28;20025;-78
2022/02/16 01:01:58;;;;;;;8.63;3.47;;;;;;;7.58;88.70;100405.56;5054192;28;20033;-77
2022/02/16 01:04:26;;;;;;;9.60;4.00;;;;;;;7.55;88.56;100401.50;5054488;28;20090;-77
2022/02/16 01:06:55;;;;;;;7.03;3.45;;;;;;;7.51;88.13;100405.28;5053706;28;20036;-77
2022/02/16 01:09:23;;;;;;;12.93;3.38;;;;;;;7.42;88.00;100399.00;5053914;28;20029;-78
2022/02/16 01:11:54;;;;;;;9.30;2.95;;;;;;;7.40;87.25;100387.44;5054088;28;20060;-78
2022/02/16 01:14:20;;;;;;;5.55;3.17;;;;;;;7.36;86.95;100392.84;5054051;28;20535;-78
2022/02/16 01:16:57;;;;;;;8.27;3.45;;;;;;;7.46;86.62;100380.59;5054280;28;20067;-77
2022/02/16 01:19:25;;;;;;;4.35;1.88;;;;;;;7.48;87.69;100392.94;5053794;28;20037;-77
2022/02/16 01:21:52;;;;;;;4.70;2.95;;;;;;;7.34;89.66;100390.41;5052871;28;20036;-77
2022/02/16 01:24:24;;;;;;;5.63;2.53;;;;;;;7.26;91.24;100383.00;5052359;28;20055;-77
2022/02/16 01:26:53;;;;;;;5.65;3.05;;;;;;;7.34;91.65;100376.56;5053238;28;20033;-78
2022/02/16 01:29:23;;;;;;;4.63;2.30;;;;;;;7.31;92.07;100368.94;5053654;28;20037;-78
2022/02/16 01:31:52;;;;;;;7.15;3.00;;;;;;;7.39;92.82;100358.13;5054564;28;20387;-77
2022/02/16 01:34:17;;;;;;;7.60;2.55;;;;;;;7.40;93.03;100355.03;5053577;28;20136;-76
2022/02/16 01:36:43;;;;;;;10.13;3.03;;;;;;;7.38;92.31;100351.00;5052570;28;20523;-76
2022/02/16 01:39:14;;;;;;;6.18;2.63;;;;;;;7.44;93.61;100350.44;5053135;28;20532;-78
2022/02/16 01:41:43;;;;;;;10.10;4.30;;;;;;;7.42;93.19;100346.41;5052800;28;20043;-77
2022/02/16 01:44:13;;;;;;;11.02;4.07;;;;;;;7.38;93.56;100353.75;5052906;28;20032;-77
2022/02/16 01:47:00;;;;;;;10.35;5.90;;;;;;;7.34;94.23;100359.16;5053220;28;20021;-77
2022/02/16 01:49:25;;;;;;;10.32;6.43;;;;;;;7.25;94.27;100369.50;5056823;28;20537;-77
2022/02/16 01:51:51;;;;;;;14.23;8.43;;;;;;;7.23;95.46;100361.50;5057419;28;20021;-77
2022/02/16 01:54:22;;;;;;;12.05;5.18;;;;;;;7.22;95.74;100359.88;5057863;28;20504;-77
2022/02/16 01:56:49;;;;;;;13.63;4.85;;;;;;;7.18;96.07;100358.94;5057961;28;20116;-78
2022/02/16 01:59:19;;;;;;;8.73;4.32;;;;;;;7.08;95.27;100364.84;5058650;28;20029;-78
2022/02/16 02:01:46;;;;;;;11.15;5.63;;;;;;;7.04;95.54;100355.63;5058751;28;20032;-77
2022/02/16 02:04:13;;;;;;;15.02;7.55;;;;;;;7.22;95.20;100353.53;5058204;28;20025;-77
2022/02/16 02:06:39;;;;;;;18.17;8.13;;;;;;;7.16;95.75;100350.16;5056904;28;20484;-78
2022/02/16 02:09:11;;;;;;;15.25;6.68;;;;;;;7.21;95.94;100352.75;5057685;28;20127;-78
2022/02/16 02:11:39;;;;;;;20.00;7.70;;;;;;;7.18;96.44;100350.63;5060007;28;20040;-78
2022/02/16 02:14:06;;;;;;;14.50;6.75;;;;;;;7.20;96.53;100362.19;5059722;28;20171;-78
2022/02/16 02:16:39;;;;;;;12.13;5.35;;;;;;;7.34;97.33;100361.91;5059055;28;20017;-78
2022/02/16 02:19:05;;;;;;;13.13;6.07;;;;;;;7.32;96.45;100359.50;5059158;28;20037;-78
2022/02/16 02:21:31;;;;;;;13.73;6.22;;;;;;;7.30;97.07;100356.25;5059427;28;20044;-78
2022/02/16 02:23:58;;;;;;;11.30;5.38;;;;;;;7.44;96.68;100367.06;5058468;28;20057;-78
2022/02/16 02:26:24;;;;;;;13.93;6.03;;;;;;;7.41;96.35;100355.88;5058459;28;20494;-78
2022/02/16 02:28:51;;;;;;;10.88;3.95;;;;;;;7.35;96.80;100347.75;5058669;28;20083;-78
2022/02/16 02:31:32;;;;;;;10.00;5.70;;;;;;;7.32;96.53;100353.97;5058548;28;20028;-78
2022/02/16 02:33:58;;;;;;;12.23;6.10;;;;;;;7.28;97.05;100347.47;5059745;28;20481;-79
2022/02/16 02:36:28;;;;;;;14.75;5.18;;;;;;;7.15;96.04;100348.56;5061490;28;20021;-79
2022/02/16 02:38:59;;;;;;;7.57;4.10;;;;;;;7.14;96.14;100346.94;5061064;28;20048;-79
2022/02/16 02:41:25;;;;;;;9.43;4.10;;;;;;;7.21;96.86;100349.97;5060791;28;20029;-79
2022/02/16 02:43:51;;;;;;;13.20;5.93;;;;;;;7.35;96.22;100342.22;5059577;28;20475;-79
2022/02/16 02:46:20;;;;;;;8.82;4.28;;;;;;;7.26;94.85;100340.66;5060412;28;20032;-79
2022/02/16 02:48:46;;;;;;;8.95;3.97;;;;;;;7.37;94.17;100349.38;5059132;28;20119;-79
2022/02/16 02:51:14;;;;;;;10.32;5.07;;;;;;;7.34;95.08;100339.78;5058769;28;20510;-79
2022/02/16 02:53:46;;;;;;;18.63;5.20;;;;;;;7.31;94.95;100340.47;5059765;28;20033;-79
2022/02/16 02:56:17;;;;;;;10.75;4.75;;;;;;;7.33;95.22;100344.50;5058628;28;20025;-79
2022/02/16 02:58:45;;;;;;;9.32;4.03;;;;;;;7.32;95.60;100348.41;5057507;28;20029;-79
2022/02/16 03:01:16;;;;;;;6.63;4.32;;;;;;;7.32;96.00;100337.34;5057113;28;20024;-79
2022/02/16 03:03:42;;;;;;;13.68;4.93;;;;;;;7.32;95.38;100340.13;5057048;28;20039;-79
2022/02/16 03:06:11;;;;;;;7.18;4.38;;;;;;;7.33;95.63;100344.50;5057485;28;20388;-79
2022/02/16 03:08:40;;;;;;;5.75;4.38;;;;;;;7.28;95.51;100354.97;5057346;28;20044;-78
2022/02/16 03:11:09;;;;;;;16.77;4.85;;;;;;;7.20;94.97;100358.63;5057238;28;20090;-78
2022/02/16 03:13:40;;;;;;;8.10;3.65;;;;;;;7.16;94.75;100346.59;5056953;28;20036;-78
2022/02/16 03:16:05;;;;;;;7.82;4.57;;;;;;;7.15;95.43;100354.09;5057265;28;20025;-78
2022/02/16 03:18:33;;;;;;;12.77;4.85;;;;;;;7.06;95.44;100339.50;5057969;28;20036;-78
2022/02/16 03:20:59;;;;;;;12.85;4.53;;;;;;;7.21;96.03;100358.28;5059432;28;20029;-78
2022/02/16 03:23:25;;;;;;;14.80;5.22;;;;;;;7.27;96.25;100367.19;5058847;28;20055;-78
2022/02/16 03:25:50;;;;;;;12.98;5.85;;;;;;;7.29;96.14;100367.66;5056531;28;20120;-78
2022/02/16 03:28:21;;;;;;;16.45;10.20;;;;;;;7.38;96.21;100375.91;5057316;28;20059;-78
2022/02/16 03:30:46;;;;;;;23.77;15.65;;;;;;;7.33;96.20;100361.09;5057023;28;20035;-78
2022/02/16 03:33:15;;;;;;;40.90;29.50;;;;;;;7.38;95.60;100368.41;5056908;28;20029;-78
2022/02/16 03:35:40;;;;;;;32.30;21.77;;;;;;;7.27;95.63;100340.31;5057530;28;20029;-78
2022/02/16 03:38:06;;;;;;;24.65;18.00;;;;;;;7.39;95.97;100358.13;5056975;28;20052;-78
2022/02/16 03:40:37;;;;;;;17.85;12.65;;;;;;;7.47;96.00;100360.06;5057529;28;20037;-78
2022/02/16 03:43:05;;;;;;;29.50;17.52;;;;;;;7.44;95.92;100360.72;5056958;28;20043;-79
2022/02/16 03:45:33;;;;;;;28.95;17.40;;;;;;;7.47;95.72;100348.97;5056695;28;20490;-78
2022/02/16 03:48:02;;;;;;;20.77;9.48;;;;;;;7.39;95.88;100347.06;5040104;28;20171;-78
2022/02/16 03:50:30;;;;;;;11.63;6.20;;;;;;;7.31;95.54;100354.31;5056604;28;20032;-78
2022/02/16 03:53:01;;;;;;;22.15;5.90;;;;;;;7.07;94.90;100352.16;5056677;28;20040;-78
2022/02/16 03:55:29;;;;;;;11.32;4.90;;;;;;;7.29;94.85;100353.81;5055095;28;20029;-78
2022/02/16 03:57:55;;;;;;;8.80;6.28;;;;;;;7.27;93.92;100356.94;5056175;28;20040;-78
2022/02/16 04:00:23;;;;;;;9.82;5.38;;;;;;;7.19;94.29;100348.66;5056175;28;20025;-78
2022/02/16 04:02:54;;;;;;;8.95;6.32;;;;;;;7.13;95.21;100352.78;5056124;28;20049;-78
2022/02/16 04:05:23;;;;;;;15.55;5.35;;;;;;;7.13;95.78;100342.53;5056679;28;20017;-78
2022/02/16 04:07:49;;;;;;;12.27;5.25;;;;;;;7.17;96.03;100348.22;5056143;28;20032;-77
2022/02/16 04:10:14;;;;;;;25.38;9.85;;;;;;;7.15;95.99;100354.09;5057143;28;20040;-77
2022/02/16 04:12:42;;;;;;;54.10;22.23;;;;;;;7.20;96.62;100356.66;5054625;28;20100;-78
2022/02/16 04:15:14;;;;;;;57.08;26.17;;;;;;;7.21;96.87;100352.75;5056254;28;20036;-77
2022/02/16 04:17:41;;;;;;;71.32;31.13;;;;;;;7.14;96.98;100358.00;5055799;28;20033;-77
2022/02/16 04:20:10;;;;;;;66.47;28.48;;;;;;;7.07;96.69;100357.72;5056074;28;20021;-78
2022/02/16 04:22:47;;;;;;;8.02;4.65;;;;;;;6.90;95.41;100357.81;5055547;28;20048;-78
2022/02/16 04:25:16;;;;;;;9.18;5.10;;;;;;;6.88;95.53;100343.53;5055779;28;20025;-77
2022/02/16 04:27:48;;;;;;;13.13;6.10;;;;;;;6.81;95.80;100332.97;5056243;28;20036;-78
2022/02/16 04:30:14;;;;;;;12.88;5.88;;;;;;;6.82;96.16;100335.41;5055580;28;20032;-79
2022/02/16 04:32:39;;;;;;;19.42;6.43;;;;;;;6.85;96.10;100333.91;5055205;28;20474;-78
2022/02/16 04:35:07;;;;;;;11.57;5.78;;;;;;;6.84;96.25;100340.59;5055823;28;20029;-78
2022/02/16 04:37:32;;;;;;;12.52;6.03;;;;;;;6.87;95.84;100347.41;5056041;28;20360;-78
2022/02/16 04:40:03;;;;;;;9.68;6.00;;;;;;;6.91;96.38;100342.84;5054591;28;20040;-78
2022/02/16 04:42:29;;;;;;;15.20;8.07;;;;;;;6.99;96.75;100344.75;5055000;28;20037;-78
2022/02/16 04:44:57;;;;;;;12.10;6.95;;;;;;;6.95;96.13;100339.06;5038317;28;20036;-78
2022/02/16 04:47:26;;;;;;;14.13;7.00;;;;;;;6.87;96.02;100325.28;5054500;28;20032;-78
2022/02/16 04:49:51;;;;;;;10.60;6.90;;;;;;;6.98;96.31;100337.59;5054847;28;20029;-78
2022/02/16 04:52:17;;;;;;;15.23;6.80;;;;;;;7.07;96.06;100335.56;5055116;28;20578;-78
2022/02/16 04:54:46;;;;;;;9.32;7.20;;;;;;;6.98;95.38;100345.91;5054463;28;20033;-78
2022/02/16 04:57:11;;;;;;;13.90;7.68;;;;;;;6.94;95.70;100337.44;5059354;28;20036;-78
2022/02/16 04:59:37;;;;;;;12.85;9.65;;;;;;;6.98;96.39;100338.41;5060870;28;20040;-78
2022/02/16 05:02:08;;;;;;;13.15;7.88;;;;;;;6.99;96.24;100334.50;5059847;28;20036;-79
2022/02/16 05:04:36;;;;;;;16.92;8.77;;;;;;;7.05;96.31;100340.63;5061445;28;20090;-79
2022/02/16 05:07:04;;;;;;;13.60;7.10;;;;;;;7.03;96.28;100329.06;5063099;28;20498;-79
2022/02/16 05:09:31;;;;;;;19.63;9.05;;;;;;;7.11;96.81;100342.06;5061822;28;20028;-79
2022/02/16 05:12:05;;;;;;;20.27;10.20;;;;;;;7.10;96.56;100329.38;5061581;28;20028;-79
2022/02/16 05:14:35;;;;;;;14.38;10.35;;;;;;;7.08;96.31;100335.25;5061885;28;20498;-79
2022/02/16 05:17:04;;;;;;;18.90;10.55;;;;;;;7.09;96.23;100336.06;5061368;28;20037;-79
2022/02/16 05:19:29;;;;;;;14.88;8.45;;;;;;;7.14;96.13;100327.56;5060443;28;20029;-78
2022/02/16 05:21:56;;;;;;;14.27;8.60;;;;;;;7.13;96.59;100327.88;5058649;28;20494;-78
2022/02/16 05:24:21;;;;;;;16.20;7.15;;;;;;;6.99;95.65;100315.13;5058157;28;20087;-78
2022/02/16 05:26:48;;;;;;;16.60;6.93;;;;;;;6.94;96.67;100322.81;5059654;28;20025;-78
2022/02/16 05:29:16;;;;;;;10.52;6.70;;;;;;;6.87;96.53;100317.81;5058254;28;20032;-78
2022/02/16 05:31:45;;;;;;;16.88;7.22;;;;;;;6.83;96.92;100320.44;5058549;28;20059;-78
2022/02/16 05:34:16;;;;;;;18.75;10.65;;;;;;;6.87;97.43;100325.28;5057978;28;20032;-77
2022/02/16 05:36:47;;;;;;;21.48;11.90;;;;;;;6.91;96.94;100326.25;5055549;28;20028;-78
2022/02/16 05:39:16;;;;;;;24.55;15.25;;;;;;;6.89;97.27;100323.81;5055450;28;20041;-77
2022/02/16 05:41:47;;;;;;;19.88;14.60;;;;;;;6.90;96.57;100330.16;5055704;28;20029;-78
2022/02/16 05:44:16;;;;;;;13.55;9.27;;;;;;;6.91;97.03;100323.47;5056421;28;20029;-77
2022/02/16 05:46:47;;;;;;;16.20;9.48;;;;;;;6.86;96.92;100326.44;5056752;28;20028;-78
2022/02/16 05:49:15;;;;;;;20.05;10.75;;;;;;;6.87;96.96;100315.06;5056889;28;20035;-78
2022/02/16 05:51:41;;;;;;;12.18;7.22;;;;;;;6.78;95.98;100317.06;5056171;28;20036;-78
2022/02/16 05:54:09;;;;;;;20.67;8.25;;;;;;;6.80;96.38;100326.63;5056026;28;20029;-78
2022/02/16 05:56:34;;;;;;;20.65;9.77;;;;;;;6.87;96.75;100320.59;5057707;28;20048;-78
2022/02/16 05:59:02;;;;;;;19.83;11.85;;;;;;;6.88;96.73;100327.72;5056412;28;20341;-78
2022/02/16 06:01:33;;;;;;;37.40;20.40;;;;;;;6.94;96.48;100317.28;5056177;28;20027;-78
2022/02/16 06:04:04;;;;;;;42.80;21.65;;;;;;;6.92;95.75;100322.31;5056573;28;20148;-78
2022/02/16 06:06:32;;;;;;;46.97;24.10;;;;;;;6.87;95.34;100325.28;5056563;28;20036;-78
2022/02/16 06:08:58;;;;;;;39.45;24.42;;;;;;;6.87;95.72;100330.81;5056877;28;20064;-79
2022/02/16 06:11:26;;;;;;;42.58;25.80;;;;;;;6.85;96.04;100328.38;5054256;28;20033;-78
2022/02/16 06:13:52;;;;;;;40.03;24.98;;;;;;;6.87;96.34;100336.34;5053858;28;20029;-78
2022/02/16 06:16:21;;;;;;;33.03;19.13;;;;;;;6.82;95.80;100331.84;5055138;28;20029;-78
2022/02/16 06:18:55;;;;;;;22.23;13.55;;;;;;;6.91;95.63;100329.00;5056213;28;20025;-78
2022/02/16 06:21:20;;;;;;;;;;;;;;;6.90;95.11;100330.16;5055999;28;20071;-78
2022/02/16 06:23:48;;;;;;;15.02;10.05;;;;;;;6.86;95.18;100335.53;5055972;28;19917;-78
2022/02/16 06:26:19;;;;;;;18.92;9.05;;;;;;;6.89;95.23;100331.31;5056595;28;20594;-78
2022/02/16 06:28:45;;;;;;;54.88;28.35;;;;;;;6.99;94.32;100347.53;5055089;28;20174;-78
2022/02/16 06:31:10;;;;;;;83.53;40.85;;;;;;;6.98;94.21;100326.53;5055174;28;20067;-77
2022/02/16 06:33:38;;;;;;;37.67;19.55;;;;;;;7.07;93.57;100324.50;5056733;28;20025;-77
2022/02/16 06:36:07;;;;;;;20.05;9.93;;;;;;;7.12;93.49;100324.31;5057523;28;20021;-78
2022/02/16 06:38:37;;;;;;;10.60;6.32;;;;;;;7.20;93.16;100328.97;5060075;28;20415;-78
2022/02/16 06:41:09;;;;;;;10.98;6.80;;;;;;;7.20;93.09;100323.44;5059470;28;20087;-78
2022/02/16 06:43:40;;;;;;;14.40;7.43;;;;;;;7.14;92.80;100322.03;5058890;28;20067;-77
2022/02/16 06:46:06;;;;;;;15.88;8.57;;;;;;;7.17;93.31;100324.13;5058644;28;20032;-79
2022/02/16 06:48:34;;;;;;;19.80;11.45;;;;;;;7.19;93.63;100324.59;5059971;28;20375;-78
2022/02/16 06:50:59;;;;;;;27.77;14.15;;;;;;;7.23;93.88;100321.94;5059142;28;20025;-77
2022/02/16 06:53:28;;;;;;;23.23;13.60;;;;;;;7.30;93.75;100341.63;5059082;28;20071;-77
2022/02/16 06:55:53;;;;;;;22.67;14.43;;;;;;;7.28;93.62;100322.56;5058704;28;20058;-78
2022/02/16 06:58:21;;;;;;;21.83;13.27;;;;;;;7.47;92.95;100332.38;5057953;28;20029;-77
2022/02/16 07:00:49;;;;;;;19.73;11.68;;;;;;;7.43;91.99;100328.66;5058605;28;20021;-77
2022/02/16 07:03:17;;;;;;;21.33;11.93;;;;;;;7.39;91.30;100336.00;5058834;28;20490;-77
2022/02/16 07:05:45;;;;;;;15.43;10.27;;;;;;;7.44;91.35;100338.56;5059350;28;20116;-77
2022/02/16 07:08:11;;;;;;;23.05;13.73;;;;;;;7.52;91.29;100334.94;5059537;28;20029;-77
2022/02/16 07:10:39;;;;;;;24.63;13.88;;;;;;;7.66;90.89;100342.94;5058984;28;20387;-77
2022/02/16 07:13:06;;;;;;;25.23;14.88;;;;;;;7.64;90.14;100332.22;5059285;28;20060;-77
2022/02/16 07:15:32;;;;;;;29.05;13.88;;;;;;;7.90;91.39;100333.94;5060607;28;20025;-75
2022/02/16 07:18:01;;;;;;;27.75;11.98;;;;;;;7.85;90.04;100337.72;5059385;28;20479;-77
2022/02/16 07:20:29;;;;;;;24.65;14.88;;;;;;;7.93;90.00;100334.03;5058651;28;20025;-77
2022/02/16 07:22:55;;;;;;;24.55;14.55;;;;;;;7.96;88.80;100333.38;5060541;28;20049;-78
2022/02/16 07:25:25;;;;;;;29.45;15.25;;;;;;;8.04;88.25;100328.88;5060369;28;20029;-77
2022/02/16 07:27:51;;;;;;;31.52;19.23;;;;;;;8.18;88.24;100329.38;5060812;28;20116;-77
2022/02/16 07:30:17;;;;;;;25.70;16.08;;;;;;;8.24;87.17;100333.56;5060637;28;20363;-77
2022/02/16 07:32:43;;;;;;;28.42;16.10;;;;;;;8.34;86.34;100346.97;5059876;28;20163;-77
2022/02/16 07:35:11;;;;;;;32.90;16.17;;;;;;;8.42;85.98;100355.59;5060643;28;20159;-77
2022/02/16 07:37:37;;;;;;;27.13;14.88;;;;;;;8.58;85.06;100359.31;5060946;28;20039;-77
2022/02/16 07:40:05;;;;;;;21.42;12.32;;;;;;;8.76;84.12;100359.88;5059777;28;20114;-77
2022/02/16 07:42:31;;;;;;;23.45;14.15;;;;;;;8.95;83.09;100353.72;5060108;28;20033;-78
2022/02/16 07:44:58;;;;;;;22.30;14.10;;;;;;;9.12;81.80;100362.66;5060597;28;20025;-78
2022/02/16 07:47:28;;;;;;;18.25;12.52;;;;;;;9.36;80.74;100361.78;5059400;28;20036;-77
2022/02/16 07:49:55;;;;;;;23.55;10.48;;;;;;;9.52;80.07;100352.72;5060793;28;20025;-77
2022/02/16 07:52:23;;;;;;;18.85;10.45;;;;;;;9.78;79.06;100360.63;5061465;28;20056;-77
2022/02/16 07:54:49;;;;;;;18.13;9.60;;;;;;;10.06;78.43;100361.41;5060966;28;20063;-77
2022/02/16 07:57:17;;;;;;;17.63;9.38;;;;;;;10.35;75.81;100357.47;5060020;28;20037;-77
2022/02/16 07:59:43;;;;;;;16.58;9.57;;;;;;;10.74;73.21;100357.69;5059905;28;20024;-77
2022/02/16 08:02:08;;;;;;;17.23;8.30;;;;;;;11.10;73.76;100356.56;5059256;28;20048;-78
2022/02/16 08:04:37;;;;;;;24.35;12.23;;;;;;;11.22;70.37;100356.44;5059497;28;20033;-78
2022/02/16 08:07:07;;;;;;;20.33;9.02;;;;;;;11.47;69.72;100359.78;5060530;28;20032;-77
2022/02/16 08:09:33;;;;;;;12.23;7.70;;;;;;;11.70;67.93;100359.06;5059754;28;20025;-77
2022/02/16 08:12:01;;;;;;;13.52;7.80;;;;;;;11.85;67.76;100358.22;5062292;28;20071;-78
2022/02/16 08:14:33;;;;;;;17.58;10.02;;;;;;;12.00;66.26;100362.13;5060749;28;20021;-77
2022/02/16 08:17:01;;;;;;;20.50;14.68;;;;;;;12.04;65.68;100363.81;5059034;28;20090;-77
2022/02/16 08:19:30;;;;;;;16.00;8.68;;;;;;;11.59;67.70;100360.81;5057329;28;20036;-77
2022/02/16 08:21:57;;;;;;;17.05;8.38;;;;;;;11.60;66.58;100365.22;5056641;28;20040;-77
2022/02/16 08:24:26;;;;;;;17.65;7.38;;;;;;;11.12;68.08;100353.41;5055865;28;20060;-77
2022/02/16 08:26:56;;;;;;;14.75;6.05;;;;;;;10.97;67.79;100367.00;5057305;28;20024;-77
2022/02/16 08:29:24;;;;;;;16.80;9.20;;;;;;;10.90;69.33;100364.03;5055877;28;20448;-77
2022/02/16 08:31:51;;;;;;;9.50;5.45;;;;;;;10.94;68.32;100351.03;5055425;28;20391;-77
2022/02/16 08:34:17;;;;;;;5.95;4.57;;;;;;;11.02;68.10;100352.81;5056324;28;20036;-77
2022/02/16 08:36:43;;;;;;;9.43;4.22;;;;;;;11.33;65.58;100356.69;5056523;28;20029;-77
2022/02/16 08:39:09;;;;;;;7.80;3.90;;;;;;;11.41;65.17;100357.66;5056025;28;20380;-77
2022/02/16 08:41:34;;;;;;;12.55;4.25;;;;;;;11.79;64.25;100348.53;5055760;28;20032;-77
2022/02/16 08:44:00;;;;;;;5.90;4.18;;;;;;;12.21;64.23;100361.72;5055111;28;20033;-77
2022/02/16 08:46:26;;;;;;;9.80;5.57;;;;;;;12.64;62.16;100352.13;5053574;28;20119;-77
2022/02/16 08:48:54;;;;;;;7.50;4.78;;;;;;;13.00;61.54;100352.72;5053624;28;20120;-77
2022/02/16 08:51:22;;;;;;;10.85;5.57;;;;;;;13.26;60.14;100365.91;5053463;28;20490;-77
2022/02/16 08:53:50;;;;;;;11.88;6.90;;;;;;;13.39;59.09;100363.72;5054351;28;20029;-77
2022/02/16 08:56:16;;;;;;;24.23;16.67;;;;;;;13.62;60.28;100356.03;5053702;28;20370;-77
2022/02/16 08:58:41;;;;;;;8.68;6.70;;;;;;;13.86;58.28;100360.34;5052478;28;20112;-77
2022/02/16 09:01:07;;;;;;;19.63;7.35;;;;;;;14.46;57.55;100357.41;5053498;28;20021;-77
2022/02/16 09:03:33;;;;;;;11.35;6.25;;;;;;;14.87;54.66;100354.63;5053093;28;20032;-77
2022/02/16 09:05:59;;;;;;;16.05;8.73;;;;;;;15.44;54.41;100346.56;5052822;28;20056;-77
2022/02/16 09:08:27;;;;;;;17.08;10.93;;;;;;;15.79;52.07;100356.41;5053770;28;20131;-77
2022/02/16 09:10:53;;;;;;;13.80;8.82;;;;;;;16.34;51.79;100364.59;5055005;28;20098;-77
2022/02/16 09:13:18;;;;;;;14.05;9.38;;;;;;;16.06;49.21;100343.69;5054416;28;20539;-77
2022/02/16 09:15:44;;;;;;;10.45;7.63;;;;;;;16.36;49.45;100362.22;5054189;28;20484;-77
2022/02/16 09:18:10;;;;;;;9.43;6.75;;;;;;;16.47;49.80;100355.41;5053502;28;20075;-77
2022/02/16 09:20:35;;;;;;;18.40;11.05;;;;;;;16.14;47.25;100325.69;5052918;28;20025;-77
2022/02/16 09:23:06;;;;;;;13.90;8.77;;;;;;;16.88;47.82;100348.63;5053944;28;20411;-77
2022/02/16 09:25:32;;;;;;;12.25;6.82;;;;;;;16.76;46.83;100347.84;5053023;28;20029;-77
2022/02/16 09:27:57;;;;;;;13.02;6.88;;;;;;;16.78;46.87;100355.88;5052979;28;20040;-77
2022/02/16 09:30:26;;;;;;;7.82;4.28;;;;;;;17.34;44.60;100353.41;5052971;28;20057;-77
2022/02/16 09:32:51;;;;;;;14.05;4.80;;;;;;;17.78;43.64;100350.91;5052791;28;20033;-77
2022/02/16 09:35:22;;;;;;;12.18;4.47;;;;;;;17.99;42.91;100344.38;5053305;28;20029;-77
2022/02/16 09:37:50;;;;;;;8.38;4.80;;;;;;;18.52;42.16;100336.81;5052405;28;20051;-78
2022/02/16 09:40:16;;;;;;;12.15;4.60;;;;;;;18.71;42.04;100343.97;5051787;28;20051;-77
2022/02/16 09:42:44;;;;;;;7.47;4.72;;;;;;;18.58;40.80;100341.59;5052278;28;20072;-77
2022/02/16 09:45:11;;;;;;;4.38;3.40;;;;;;;18.10;41.43;100341.50;5051901;28;20049;-77
2022/02/16 09:47:43;;;;;;;9.43;3.75;;;;;;;16.30;45.73;100352.56;5052068;28;20029;-77
2022/02/16 09:50:11;;;;;;;7.68;4.45;;;;;;;16.37;46.17;100339.34;5053352;28;20021;-77
2022/02/16 09:52:38;;;;;;;7.18;3.95;;;;;;;16.29;45.63;100345.34;5053117;28;20468;-77
2022/02/16 09:55:04;;;;;;;6.80;4.32;;;;;;;16.27;45.50;100342.13;5053400;28;20067;-77
2022/02/16 09:57:30;;;;;;;9.13;3.80;;;;;;;15.23;45.48;100340.84;5053135;28;20471;-77
2022/02/16 10:00:00;;;;;;;10.60;4.32;;;;;;;15.52;45.67;100337.03;5054524;28;20115;-77
2022/02/16 10:02:39;;;;;;;10.20;5.28;;;;;;;14.90;46.62;100335.00;5055961;28;20029;-77
2022/02/16 10:05:07;;;;;;;20.45;3.83;;;;;;;15.42;45.05;100332.16;5055705;28;20055;-76
2022/02/16 10:07:39;;;;;;;8.45;4.18;;;;;;;15.16;46.74;100345.22;5054068;28;20029;-77
2022/02/16 10:10:25;;;;;;;8.85;3.50;;;;;;;14.96;46.39;100331.84;5055984;28;20029;-77
2022/02/16 10:12:53;;;;;;;13.63;4.25;;;;;;;15.55;47.20;100329.81;5057539;28;20040;-77
2022/02/16 10:15:39;;;;;;;8.35;4.78;;;;;;;15.94;47.50;100327.22;5059237;28;20021;-77
2022/02/16 10:18:18;;;;;;;12.05;3.45;;;;;;;15.24;50.95;100326.47;5059842;28;20464;-76
2022/02/16 10:20:44;;;;;;;10.65;4.63;;;;;;;15.14;51.94;100319.59;5060639;28;20131;-77
2022/02/16 10:23:10;;;;;;;8.52;4.22;;;;;;;15.18;52.00;100319.63;5059504;28;20041;-77
2022/02/16 10:25:37;;;;;;;7.10;2.60;;;;;;;15.11;51.07;100311.94;5060136;28;20025;-77
2022/02/16 10:28:17;;;;;;;17.08;2.80;;;;;;;16.02;50.11;100314.78;5059971;28;20070;-77
2022/02/16 10:31:02;;;;;;;8.80;3.63;;;;;;;16.47;45.80;100318.09;5060102;28;20029;-77
2022/02/16 10:33:31;;;;;;;7.78;5.20;;;;;;;16.31;46.17;100321.28;5058087;28;20029;-76
2022/02/16 10:36:01;;;;;;;8.20;2.83;;;;;;;16.12;43.98;100310.41;5061336;28;20029;-77
2022/02/16 10:38:27;;;;;;;9.65;3.53;;;;;;;16.28;41.16;100315.66;5059820;28;20060;-77
2022/02/16 10:41:08;;;;;;;14.13;7.63;;;;;;;14.53;43.82;100279.09;5060607;28;20021;-76
2022/02/16 10:43:41;;;;;;;6.57;3.30;;;;;;;14.29;44.76;100302.06;5058659;28;20132;-76
2022/02/16 10:46:29;;;;;;;10.05;3.28;;;;;;;14.15;44.03;100302.72;5060203;28;20029;-77
2022/02/16 10:49:13;;;;;;;14.05;4.32;;;;;;;14.08;46.37;100300.66;5056295;28;20379;-72
2022/02/16 10:51:39;;;;;;;8.80;5.22;;;;;;;14.05;45.96;100289.41;5054975;28;20025;-72
2022/02/16 10:54:19;;;;;;;12.55;6.28;;;;;;;14.01;47.09;100292.19;5059677;28;20071;-77
2022/02/16 10:56:52;;;;;;;9.75;5.55;;;;;;;14.84;48.04;100290.94;5062580;28;20021;-77
2022/02/16 10:59:20;;;;;;;13.85;6.15;;;;;;;14.93;46.74;100288.63;5061258;28;20112;-77
2022/02/16 11:01:46;;;;;;;13.63;5.07;;;;;;;14.60;45.30;100287.59;5062456;28;20078;-77
2022/02/16 11:04:14;;;;;;;15.43;5.07;;;;;;;14.46;46.89;100287.41;5061685;28;20116;-77
2022/02/16 11:06:47;;;;;;;10.80;5.28;;;;;;;14.30;46.53;100275.69;5058691;28;20368;-76
2022/02/16 11:09:26;;;;;;;9.18;3.83;;;;;;;14.12;45.05;100272.72;5055259;28;20034;-77
2022/02/16 11:11:56;;;;;;;15.02;5.28;;;;;;;14.16;45.68;100267.94;5055130;28;20119;-76
2022/02/16 11:14:28;;;;;;;9.90;4.60;;;;;;;14.03;48.35;100264.63;5055368;28;20052;-77
2022/02/16 11:16:57;;;;;;;7.38;5.00;;;;;;;13.93;47.67;100270.91;5055794;28;20025;-77
2022/02/16 11:19:25;;;;;;;11.88;4.95;;;;;;;13.63;47.04;100265.38;5055706;28;20388;-77
2022/02/16 11:22:06;;;;;;;10.02;4.72;;;;;;;13.35;46.91;100244.28;5055120;28;20033;-77
2022/02/16 11:24:46;;;;;;;14.23;4.90;;;;;;;13.45;48.25;100261.56;5054599;28;20140;-77
2022/02/16 11:27:26;;;;;;;14.85;5.40;;;;;;;13.85;52.05;100247.69;5055484;28;20430;-77